Time;durP1;ratioP1;P1;durP2;ratioP2;P2;SDS_P1;SDS_P2;PMS_P1;PMS_P2;Temp;Humidity;BMP_temperature;BMP_pressure;BME280_temperature;BME280_humidity;BME280_pressure;Samples;Min_cycle;Max_cycle;Signal;HPM_P1;HPM_P2
2023/08/16 00:01:41;;;;;;;10.52;9.63;;;20.40;99.90;;;;;;5130425;27;20896;-71
2023/08/16 00:04:08;;;;;;;10.13;9.32;;;20.40;99.90;;;;;;5121271;27;20432;-73
2023/08/16 00:06:35;;;;;;;10.30;9.35;;;20.40;99.90;;;;;;5124703;27;20423;-71
2023/08/16 00:09:04;;;;;;;9.63;8.80;;;20.40;99.90;;;;;;5118243;27;20412;-72
2023/08/16 00:11:32;;;;;;;9.27;8.47;;;20.40;99.90;;;;;;5130072;27;20479;-73
2023/08/16 00:13:59;;;;;;;10.18;9.20;;;20.30;99.90;;;;;;5130778;27;20888;-72
2023/08/16 00:16:26;;;;;;;9.60;8.80;;;20.30;99.90;;;;;;5123303;27;20476;-72
2023/08/16 00:18:53;;;;;;;9.85;8.95;;;20.30;99.90;;;;;;5122264;27;20415;-72
2023/08/16 00:21:20;;;;;;;9.20;8.40;;;20.30;99.90;;;;;;5125274;27;20491;-72
2023/08/16 00:23:47;;;;;;;9.50;8.70;;;20.20;99.90;;;;;;5126204;27;20418;-73
2023/08/16 00:26:13;;;;;;;9.95;9.25;;;20.20;99.90;;;;;;5129438;27;20485;-71
2023/08/16 00:28:42;;;;;;;9.50;8.80;;;20.20;99.90;;;;;;5123166;27;20419;-73
2023/08/16 00:31:08;;;;;;;9.48;8.68;;;20.20;99.90;;;;;;5130082;27;20482;-72
2023/08/16 00:33:35;;;;;;;10.57;9.68;;;20.20;99.90;;;;;;5121725;27;20524;-71
2023/08/16 00:36:02;;;;;;;9.63;8.82;;;20.20;99.90;;;;;;5128597;27;20469;-72
2023/08/16 00:38:29;;;;;;;10.15;9.25;;;20.20;99.90;;;;;;5112691;27;20404;-72
2023/08/16 00:40:57;;;;;;;10.60;9.60;;;20.10;99.90;;;;;;5129637;27;20414;-72
2023/08/16 00:43:24;;;;;;;10.38;9.48;;;20.10;99.90;;;;;;5134530;27;20942;-73
2023/08/16 00:45:52;;;;;;;10.35;9.45;;;20.10;99.90;;;;;;5126109;27;20416;-72
2023/08/16 00:48:19;;;;;;;10.75;9.85;;;20.10;99.90;;;;;;5124222;27;20422;-72
2023/08/16 00:50:47;;;;;;;11.63;10.53;;;20.10;99.90;;;;;;5117958;27;20405;-71
2023/08/16 00:53:16;;;;;;;10.90;10.00;;;20.00;99.90;;;;;;5124972;27;20426;-72
2023/08/16 00:55:43;;;;;;;11.13;10.13;;;20.00;99.90;;;;;;5119579;27;20424;-71
2023/08/16 00:58:10;;;;;;;10.18;9.20;;;20.00;99.90;;;;;;5117334;27;20759;-73
2023/08/16 01:00:37;;;;;;;10.57;9.77;;;20.00;99.90;;;;;;5125707;27;20451;-73
2023/08/16 01:03:05;;;;;;;11.48;10.38;;;20.00;99.90;;;;;;5129526;27;20424;-73
2023/08/16 01:05:33;;;;;;;10.90;9.77;;;20.00;99.90;;;;;;5125181;27;20424;-72
2023/08/16 01:08:00;;;;;;;10.70;9.80;;;19.90;99.90;;;;;;5125021;27;20424;-73
2023/08/16 01:10:39;;;;;;;11.27;10.27;;;19.90;99.90;;;;;;5120012;27;20435;-72
2023/08/16 01:13:11;;;;;;;11.50;10.40;;;19.90;99.90;;;;;;5141278;27;20888;-72
2023/08/16 01:15:42;;;;;;;10.55;9.65;;;19.90;99.90;;;;;;5136406;27;20402;-72
2023/08/16 01:18:11;;;;;;;10.55;9.75;;;19.80;99.90;;;;;;5137224;27;20410;-72
2023/08/16 01:20:38;;;;;;;11.38;10.27;;;19.90;99.90;;;;;;5131582;27;20910;-70
2023/08/16 01:23:07;;;;;;;12.10;11.10;;;19.80;99.90;;;;;;5128568;27;20427;-72
2023/08/16 01:25:48;;;;;;;11.60;10.70;;;19.80;99.90;;;;;;5114842;28;20453;-71
2023/08/16 01:28:18;;;;;;;11.17;10.17;;;19.80;99.90;;;;;;5126608;28;20522;-72
2023/08/16 01:30:46;;;;;;;11.27;10.38;;;19.80;99.90;;;;;;5120826;28;20797;-71
2023/08/16 01:33:14;;;;;;;11.50;10.48;;;19.70;99.90;;;;;;5126346;27;20474;-71
2023/08/16 01:35:41;;;;;;;12.45;11.35;;;19.70;99.90;;;;;;5115861;28;20489;-71
2023/08/16 01:38:12;;;;;;;11.57;10.68;;;19.70;99.90;;;;;;5120185;28;20439;-71
2023/08/16 01:40:44;;;;;;;11.90;11.00;;;19.60;99.90;;;;;;5118352;28;20406;-72
2023/08/16 01:43:14;;;;;;;13.10;11.90;;;19.60;99.90;;;;;;5129039;27;20413;-71
2023/08/16 01:45:42;;;;;;;12.52;11.52;;;19.60;99.90;;;;;;5126792;27;20421;-72
2023/08/16 01:48:09;;;;;;;12.80;11.60;;;19.50;99.90;;;;;;5100841;22;20436;-66
2023/08/16 01:50:36;;;;;;;13.10;12.10;;;19.50;99.90;;;;;;5072751;28;20404;-66
2023/08/16 01:53:03;;;;;;;13.70;12.60;;;19.40;99.90;;;;;;5065187;28;20986;-66
2023/08/16 01:55:30;;;;;;;14.15;13.00;;;19.40;99.90;;;;;;5071641;28;20407;-67
2023/08/16 01:57:57;;;;;;;16.10;14.80;;;19.40;99.90;;;;;;5071660;28;20786;-66
2023/08/16 02:00:24;;;;;;;14.88;13.68;;;19.30;99.90;;;;;;5065638;28;20433;-66
2023/08/16 02:02:52;;;;;;;16.17;14.77;;;19.30;99.90;;;;;;5070108;28;20485;-66
2023/08/16 02:05:19;;;;;;;16.10;14.80;;;19.20;99.90;;;;;;5066333;28;20434;-66
2023/08/16 02:07:45;;;;;;;16.48;15.18;;;19.20;99.90;;;;;;5070403;28;20427;-66
2023/08/16 02:10:12;;;;;;;16.00;14.70;;;19.20;99.90;;;;;;5076809;28;20418;-66
2023/08/16 02:12:39;;;;;;;16.33;15.13;;;19.20;99.90;;;;;;5070989;28;21006;-66
2023/08/16 02:15:06;;;;;;;16.02;14.52;;;19.20;99.90;;;;;;5071536;28;20412;-66
2023/08/16 02:17:33;;;;;;;16.85;15.45;;;19.10;99.90;;;;;;5065543;28;20415;-66
2023/08/16 02:20:01;;;;;;;15.27;14.07;;;19.10;99.90;;;;;;5071493;28;20419;-65
2023/08/16 02:22:28;;;;;;;17.20;15.80;;;19.20;99.90;;;;;;5063968;28;20435;-64
2023/08/16 02:24:54;;;;;;;16.83;15.52;;;19.20;99.90;;;;;;5065670;28;20427;-65
2023/08/16 02:27:21;;;;;;;16.20;14.80;;;19.20;99.90;;;;;;5070933;28;20419;-66
2023/08/16 02:29:48;;;;;;;17.25;15.85;;;19.20;99.90;;;;;;5071307;28;20422;-65
2023/08/16 02:32:14;;;;;;;16.13;14.82;;;19.20;99.90;;;;;;5066512;28;20438;-64
2023/08/16 02:34:41;;;;;;;16.77;15.38;;;19.10;99.90;;;;;;5068468;28;20962;-65
2023/08/16 02:37:09;;;;;;;16.67;15.38;;;19.10;99.90;;;;;;5068687;28;20438;-67
2023/08/16 02:39:36;;;;;;;17.33;15.73;;;19.20;99.90;;;;;;5063261;28;20794;-65
2023/08/16 02:42:03;;;;;;;17.48;15.88;;;19.20;99.90;;;;;;5070869;28;20412;-66
2023/08/16 02:44:30;;;;;;;18.10;16.40;;;19.10;99.90;;;;;;5070909;28;20456;-66
2023/08/16 02:46:57;;;;;;;17.85;16.25;;;19.10;99.90;;;;;;5075626;28;20437;-65
2023/08/16 02:49:23;;;;;;;19.55;17.85;;;19.10;99.90;;;;;;5089486;28;20428;-66
2023/08/16 02:51:50;;;;;;;19.33;17.70;;;19.10;99.90;;;;;;5089991;28;20414;-65
2023/08/16 02:54:18;;;;;;;18.60;17.00;;;19.00;99.90;;;;;;5078834;28;20412;-65
2023/08/16 02:56:45;;;;;;;19.40;17.70;;;19.00;99.90;;;;;;5089384;28;20772;-65
2023/08/16 02:59:14;;;;;;;19.33;17.73;;;19.00;99.90;;;;;;5091048;28;20787;-65
2023/08/16 03:01:41;;;;;;;19.33;17.70;;;19.10;99.90;;;;;;5089212;28;20460;-66
2023/08/16 03:04:08;;;;;;;19.40;17.77;;;19.10;99.90;;;;;;5090694;28;20934;-67
2023/08/16 03:06:34;;;;;;;19.85;18.25;;;19.10;99.90;;;;;;5087427;28;20410;-66
2023/08/16 03:09:01;;;;;;;19.23;17.53;;;19.10;99.90;;;;;;5088894;28;20603;-66
2023/08/16 03:11:29;;;;;;;18.70;17.17;;;19.20;99.90;;;;;;5088894;28;20518;-67
2023/08/16 03:13:56;;;;;;;19.10;17.40;;;19.30;99.90;;;;;;5087056;28;20414;-65
2023/08/16 03:16:23;;;;;;;19.20;17.60;;;19.30;99.90;;;;;;5087347;28;20777;-66
2023/08/16 03:18:49;;;;;;;19.75;17.85;;;19.40;99.90;;;;;;5090267;28;20425;-65
2023/08/16 03:21:16;;;;;;;18.92;17.33;;;19.40;99.90;;;;;;5090204;28;20429;-65
2023/08/16 03:23:43;;;;;;;18.73;17.23;;;19.40;99.90;;;;;;5089451;28;20429;-65
2023/08/16 03:26:09;;;;;;;19.17;17.57;;;19.50;99.90;;;;;;5081687;28;20429;-64
2023/08/16 03:28:37;;;;;;;19.60;18.00;;;19.50;99.90;;;;;;5088087;28;20908;-67
2023/08/16 03:31:08;;;;;;;18.70;17.25;;;19.50;99.90;;;;;;5085832;28;20421;-65
2023/08/16 03:33:34;;;;;;;19.30;17.58;;;19.50;99.90;;;;;;5089351;28;20424;-66
2023/08/16 03:36:01;;;;;;;18.45;16.95;;;19.50;99.90;;;;;;5092002;28;20769;-65
2023/08/16 03:38:28;;;;;;;19.23;17.63;;;19.50;99.90;;;;;;5088004;28;20433;-65
2023/08/16 03:40:54;;;;;;;19.88;18.08;;;19.50;99.90;;;;;;5089523;28;20417;-66
2023/08/16 03:43:21;;;;;;;19.40;17.70;;;19.50;99.90;;;;;;5088463;28;20406;-65
2023/08/16 03:45:50;;;;;;;19.80;18.10;;;19.60;99.90;;;;;;5091475;28;20433;-65
2023/08/16 03:48:17;;;;;;;20.13;18.53;;;19.60;99.90;;;;;;5088824;28;20414;-66
2023/08/16 03:50:43;;;;;;;19.33;17.63;;;19.60;99.90;;;;;;5087608;28;20440;-63
2023/08/16 03:53:11;;;;;;;19.13;17.63;;;19.60;99.90;;;;;;5086359;28;20421;-65
2023/08/16 03:55:38;;;;;;;18.92;17.33;;;19.60;99.90;;;;;;5090982;28;20439;-68
2023/08/16 03:58:04;;;;;;;20.27;18.67;;;19.60;99.90;;;;;;5081747;28;20430;-65
2023/08/16 04:00:31;;;;;;;20.55;18.85;;;19.60;99.90;;;;;;5081953;28;20418;-66
2023/08/16 04:02:59;;;;;;;18.67;17.08;;;19.60;99.90;;;;;;5089916;28;20497;-65
2023/08/16 04:05:26;;;;;;;19.50;17.90;;;19.60;99.90;;;;;;5092876;28;20433;-64
2023/08/16 04:07:53;;;;;;;19.60;17.80;;;19.60;99.90;;;;;;5087269;28;20539;-64
2023/08/16 04:10:20;;;;;;;21.20;19.50;;;19.70;99.90;;;;;;5090115;28;20420;-65
2023/08/16 04:12:47;;;;;;;19.27;17.77;;;19.70;99.90;;;;;;5089496;28;20780;-65
2023/08/16 04:15:14;;;;;;;20.10;18.40;;;19.70;99.90;;;;;;5088935;28;20856;-66
2023/08/16 04:17:41;;;;;;;20.90;19.10;;;19.70;99.90;;;;;;5082468;28;20516;-64
2023/08/16 04:20:10;;;;;;;19.95;18.15;;;19.70;99.90;;;;;;5090242;28;20438;-64
2023/08/16 04:22:37;;;;;;;22.15;20.15;;;19.70;99.90;;;;;;5086117;28;20430;-65
2023/08/16 04:25:04;;;;;;;21.15;19.10;;;19.70;99.90;;;;;;5094677;28;20431;-65
2023/08/16 04:27:31;;;;;;;20.65;18.95;;;19.70;99.90;;;;;;5078840;28;20921;-65
2023/08/16 04:29:57;;;;;;;21.50;19.40;;;19.70;99.90;;;;;;5090530;28;20429;-66
2023/08/16 04:32:24;;;;;;;20.77;19.00;;;19.70;99.90;;;;;;5083755;28;20796;-66
2023/08/16 04:34:51;;;;;;;19.95;18.05;;;19.70;99.90;;;;;;5079809;28;20406;-67
2023/08/16 04:37:19;;;;;;;21.08;19.17;;;19.80;99.90;;;;;;5085817;28;20954;-65
2023/08/16 04:39:46;;;;;;;18.13;16.63;;;19.80;99.90;;;;;;5082261;28;20493;-64
2023/08/16 04:42:13;;;;;;;17.63;16.23;;;20.00;99.90;;;;;;5088034;28;20406;-65
2023/08/16 04:44:39;;;;;;;19.88;18.17;;;20.00;99.90;;;;;;5084043;28;20433;-66
2023/08/16 04:47:07;;;;;;;20.00;18.30;;;20.00;99.90;;;;;;5083619;28;20425;-70
2023/08/16 04:49:33;;;;;;;20.00;18.30;;;20.00;99.90;;;;;;5078814;28;20916;-67
2023/08/16 04:52:00;;;;;;;19.48;17.88;;;19.90;99.90;;;;;;5087106;28;20437;-68
2023/08/16 04:54:28;;;;;;;19.73;17.95;;;19.80;99.90;;;;;;5088963;28;20437;-67
2023/08/16 04:56:55;;;;;;;18.05;16.35;;;19.70;99.90;;;;;;5079376;28;20429;-67
2023/08/16 04:59:22;;;;;;;18.55;16.83;;;19.70;99.90;;;;;;5079685;28;20793;-67
2023/08/16 05:01:48;;;;;;;18.15;16.35;;;19.80;99.90;;;;;;5082497;28;20437;-68
2023/08/16 05:04:15;;;;;;;17.67;16.10;;;20.00;99.90;;;;;;5087275;28;20421;-68
2023/08/16 05:06:42;;;;;;;20.33;18.43;;;20.10;99.90;;;;;;5088066;28;20421;-68
2023/08/16 05:09:09;;;;;;;18.77;17.08;;;20.20;99.90;;;;;;5085385;28;20426;-68
2023/08/16 05:11:37;;;;;;;17.48;15.98;;;20.10;99.90;;;;;;5085815;28;20410;-68
2023/08/16 05:14:04;;;;;;;18.95;17.30;;;20.10;99.90;;;;;;5088977;28;20413;-67
2023/08/16 05:16:30;;;;;;;21.00;19.00;;;20.00;99.90;;;;;;5087072;28;20428;-68
2023/08/16 05:18:58;;;;;;;20.48;18.38;;;19.90;99.90;;;;;;5087550;28;20433;-68
2023/08/16 05:21:25;;;;;;;19.88;17.98;;;19.80;99.90;;;;;;5086521;28;20463;-69
2023/08/16 05:23:52;;;;;;;19.58;17.77;;;19.80;99.90;;;;;;5086272;28;20426;-68
2023/08/16 05:26:19;;;;;;;15.85;14.27;;;19.80;99.90;;;;;;5083580;28;20426;-67
2023/08/16 05:28:47;;;;;;;17.48;15.77;;;19.80;99.90;;;;;;5087669;28;20410;-67
2023/08/16 05:31:15;;;;;;;18.15;16.45;;;19.90;99.90;;;;;;5087566;28;20489;-67
2023/08/16 05:33:42;;;;;;;20.13;18.17;;;20.00;99.90;;;;;;5087008;28;20781;-67
2023/08/16 05:36:09;;;;;;;16.67;15.10;;;20.10;99.90;;;;;;5087319;28;20422;-68
2023/08/16 05:38:35;;;;;;;19.83;18.02;;;20.10;99.90;;;;;;5083395;28;20409;-68
2023/08/16 05:41:04;;;;;;;20.58;18.80;;;20.10;99.90;;;;;;5084898;28;20410;-68
2023/08/16 05:43:30;;;;;;;21.42;19.50;;;20.10;99.90;;;;;;5085879;28;20413;-68
2023/08/16 05:45:58;;;;;;;21.67;19.70;;;20.10;99.90;;;;;;5086547;28;20425;-68
2023/08/16 05:48:25;;;;;;;20.15;18.25;;;20.10;99.90;;;;;;5085739;28;20770;-68
2023/08/16 05:50:52;;;;;;;21.52;19.42;;;20.10;99.90;;;;;;5081365;28;20914;-68
2023/08/16 05:53:19;;;;;;;18.92;17.23;;;20.20;99.90;;;;;;5083084;28;20429;-68
2023/08/16 05:55:45;;;;;;;18.23;16.53;;;20.20;99.90;;;;;;5075008;28;20407;-68
2023/08/16 05:58:12;;;;;;;19.00;17.20;;;20.20;99.90;;;;;;5083999;28;20426;-68
2023/08/16 06:00:39;;;;;;;18.92;17.02;;;20.30;99.90;;;;;;5079759;28;20426;-68
2023/08/16 06:03:07;;;;;;;21.02;18.92;;;20.30;99.90;;;;;;5085955;28;20437;-68
2023/08/16 06:05:34;;;;;;;18.40;16.70;;;20.40;99.90;;;;;;5086456;28;20927;-67
2023/08/16 06:08:01;;;;;;;18.27;16.55;;;20.50;99.90;;;;;;5088017;28;20413;-69
2023/08/16 06:10:28;;;;;;;18.03;16.33;;;20.40;99.90;;;;;;5087382;28;20839;-68
2023/08/16 06:12:55;;;;;;;18.98;17.08;;;20.50;99.90;;;;;;5086280;28;20425;-66
2023/08/16 06:15:22;;;;;;;19.15;17.25;;;20.50;99.90;;;;;;5077336;28;20765;-66
2023/08/16 06:17:49;;;;;;;19.20;17.33;;;20.40;99.90;;;;;;5086768;28;20426;-69
2023/08/16 06:20:17;;;;;;;18.58;16.77;;;20.50;99.90;;;;;;5080460;28;20426;-67
2023/08/16 06:22:44;;;;;;;19.60;17.60;;;20.50;99.90;;;;;;5077814;28;20425;-67
2023/08/16 06:25:11;;;;;;;18.63;16.73;;;20.50;99.90;;;;;;5082359;28;20434;-67
2023/08/16 06:27:37;;;;;;;19.35;17.35;;;20.50;99.90;;;;;;5083264;28;20430;-67
2023/08/16 06:30:05;;;;;;;21.70;18.75;;;20.50;99.90;;;;;;5085567;28;20430;-67
2023/08/16 06:32:31;;;;;;;22.65;19.38;;;20.40;99.90;;;;;;5078438;28;20433;-67
2023/08/16 06:34:58;;;;;;;21.80;19.38;;;20.40;99.90;;;;;;5075246;28;20411;-67
2023/08/16 06:37:26;;;;;;;20.75;18.38;;;20.40;99.90;;;;;;5082630;28;20405;-67
2023/08/16 06:39:53;;;;;;;19.08;17.27;;;20.40;99.90;;;;;;5087662;28;20417;-68
2023/08/16 06:42:20;;;;;;;19.55;17.48;;;20.40;99.90;;;;;;5088438;28;20787;-68
2023/08/16 06:44:47;;;;;;;20.52;18.42;;;20.40;99.90;;;;;;5094763;28;20434;-67
2023/08/16 06:47:14;;;;;;;21.33;18.77;;;20.40;99.90;;;;;;5084137;28;20556;-67
2023/08/16 06:49:40;;;;;;;20.47;18.47;;;20.50;99.90;;;;;;5086268;28;20816;-67
2023/08/16 06:52:07;;;;;;;20.27;18.05;;;20.50;99.90;;;;;;5076262;28;20421;-68
2023/08/16 06:54:35;;;;;;;21.58;18.67;;;20.50;99.90;;;;;;5091191;28;20819;-68
2023/08/16 06:57:02;;;;;;;19.15;17.05;;;20.60;99.90;;;;;;5090948;28;20402;-67
2023/08/16 06:59:31;;;;;;;20.98;17.50;;;20.60;99.90;;;;;;5089844;28;20453;-67
2023/08/16 07:01:58;;;;;;;22.52;18.40;;;20.70;99.90;;;;;;5090180;28;20426;-67
2023/08/16 07:04:25;;;;;;;21.80;17.83;;;20.70;99.90;;;;;;5088360;28;20441;-66
2023/08/16 07:06:52;;;;;;;19.70;17.60;;;20.70;99.90;;;;;;5087791;28;20932;-66
2023/08/16 07:09:19;;;;;;;20.30;18.10;;;20.70;99.90;;;;;;5090465;28;20421;-67
2023/08/16 07:11:47;;;;;;;19.52;17.20;;;20.70;99.90;;;;;;5090004;28;20491;-67
2023/08/16 07:14:14;;;;;;;20.38;18.27;;;20.80;99.90;;;;;;5090941;28;20492;-67
2023/08/16 07:16:40;;;;;;;21.40;18.27;;;20.80;99.90;;;;;;5087266;28;20417;-67
2023/08/16 07:19:08;;;;;;;19.38;17.38;;;20.90;99.90;;;;;;5082861;28;20411;-66
2023/08/16 07:21:35;;;;;;;21.73;19.23;;;20.90;99.90;;;;;;5091104;28;20445;-67
2023/08/16 07:24:02;;;;;;;20.33;18.30;;;20.90;99.90;;;;;;5090734;28;20471;-66
2023/08/16 07:26:29;;;;;;;21.77;19.55;;;20.90;99.90;;;;;;5089521;28;20967;-66
2023/08/16 07:28:58;;;;;;;22.58;20.27;;;20.90;99.90;;;;;;5089088;28;20942;-66
2023/08/16 07:31:24;;;;;;;21.42;19.48;;;20.90;99.90;;;;;;5086011;28;20440;-67
2023/08/16 07:33:51;;;;;;;23.02;21.02;;;20.90;99.90;;;;;;5088962;28;20493;-67
2023/08/16 07:36:18;;;;;;;22.52;20.45;;;20.90;99.90;;;;;;5077966;28;20409;-67
2023/08/16 07:38:46;;;;;;;21.48;19.58;;;21.00;99.90;;;;;;5089802;28;20394;-67
2023/08/16 07:41:13;;;;;;;19.45;17.50;;;21.00;99.90;;;;;;5088648;28;20448;-66
2023/08/16 07:43:40;;;;;;;17.50;15.90;;;21.10;99.90;;;;;;5082410;28;20837;-67
2023/08/16 07:46:08;;;;;;;17.83;16.25;;;21.20;99.90;;;;;;5088595;28;20422;-66
2023/08/16 07:48:34;;;;;;;17.75;16.05;;;21.30;99.90;;;;;;5091809;22;20784;-72
2023/08/16 07:51:01;;;;;;;17.35;15.85;;;21.30;99.90;;;;;;5074464;28;20414;-71
2023/08/16 07:53:28;;;;;;;17.05;15.63;;;21.30;99.90;;;;;;5082142;28;20419;-71
2023/08/16 07:55:54;;;;;;;16.35;14.85;;;21.40;99.90;;;;;;5077104;28;20425;-72
2023/08/16 07:58:21;;;;;;;14.40;12.90;;;21.40;99.90;;;;;;5086133;28;20451;-70
2023/08/16 08:00:53;;;;;;;13.40;11.32;;;21.40;99.90;;;;;;5073440;28;21035;-72
2023/08/16 08:03:21;;;;;;;11.88;10.68;;;21.50;99.90;;;;;;5072122;28;20444;-73
2023/08/16 08:05:48;;;;;;;10.98;9.88;;;21.60;99.90;;;;;;5071216;28;20422;-73
2023/08/16 08:08:15;;;;;;;10.63;9.50;;;21.70;99.90;;;;;;5080793;28;20439;-70
2023/08/16 08:10:43;;;;;;;9.77;8.77;;;21.90;99.90;;;;;;5073755;28;20422;-72
2023/08/16 08:13:10;;;;;;;9.37;8.37;;;22.00;99.90;;;;;;5081430;28;20414;-70
2023/08/16 08:15:37;;;;;;;8.80;8.00;;;22.10;99.90;;;;;;5081848;28;20869;-72
2023/08/16 08:18:04;;;;;;;8.10;7.40;;;22.20;99.90;;;;;;5072590;28;20445;-72
2023/08/16 08:20:32;;;;;;;9.50;7.47;;;22.20;99.90;;;;;;5080009;28;20789;-72
2023/08/16 08:22:59;;;;;;;8.10;7.40;;;22.20;99.90;;;;;;5073706;28;20408;-72
2023/08/16 08:25:26;;;;;;;9.07;8.38;;;22.20;99.90;;;;;;5079111;28;20514;-71
2023/08/16 08:27:53;;;;;;;11.52;10.45;;;22.30;99.90;;;;;;5076682;28;20492;-72
2023/08/16 08:30:19;;;;;;;12.70;11.70;;;22.30;99.90;;;;;;5085224;28;20448;-71
2023/08/16 08:32:46;;;;;;;11.07;10.07;;;22.20;99.90;;;;;;5068707;28;20429;-72
2023/08/16 08:35:13;;;;;;;12.27;11.13;;;22.30;99.90;;;;;;5076315;28;20414;-72
2023/08/16 08:37:41;;;;;;;11.50;10.40;;;22.30;99.90;;;;;;5073362;28;20415;-71
2023/08/16 08:40:08;;;;;;;11.00;9.90;;;22.30;99.90;;;;;;5069105;28;20416;-73
2023/08/16 08:42:36;;;;;;;10.38;9.43;;;22.30;99.90;;;;;;5071557;28;20814;-72
2023/08/16 08:45:05;;;;;;;11.20;10.20;;;22.30;99.90;;;;;;5079576;28;20424;-72
2023/08/16 08:47:32;;;;;;;12.77;11.57;;;22.30;99.90;;;;;;5070930;28;20440;-72
2023/08/16 08:50:00;;;;;;;11.18;10.23;;;22.30;99.90;;;;;;5074439;28;20431;-72
2023/08/16 08:52:28;;;;;;;10.82;9.73;;;22.30;99.90;;;;;;5071852;28;20435;-72
2023/08/16 08:54:58;;;;;;;11.30;10.30;;;22.30;99.90;;;;;;5071880;28;20423;-71
2023/08/16 08:57:28;;;;;;;12.05;10.80;;;22.30;99.90;;;;;;5083483;28;20411;-71
2023/08/16 08:59:58;;;;;;;10.68;9.68;;;22.40;99.90;;;;;;5076569;28;20418;-72
2023/08/16 09:02:25;;;;;;;10.95;9.95;;;22.40;99.90;;;;;;5071601;28;20431;-71
2023/08/16 09:04:53;;;;;;;12.45;11.25;;;22.50;99.90;;;;;;5074664;28;20409;-72
2023/08/16 09:07:22;;;;;;;12.30;11.20;;;22.50;99.90;;;;;;5067584;28;20914;-72
2023/08/16 09:09:49;;;;;;;12.13;10.93;;;22.60;99.90;;;;;;5063190;28;20454;-73
2023/08/16 09:12:18;;;;;;;10.80;9.90;;;22.60;99.90;;;;;;5076872;28;20530;-71
2023/08/16 09:14:45;;;;;;;10.15;9.23;;;22.60;99.90;;;;;;5074581;28;20414;-71
2023/08/16 09:17:12;;;;;;;9.80;8.90;;;22.60;99.90;;;;;;5076053;28;20888;-71
2023/08/16 09:19:44;;;;;;;8.90;8.10;;;22.70;99.90;;;;;;5070225;28;20413;-71
2023/08/16 09:22:11;;;;;;;9.50;8.60;;;22.80;99.90;;;;;;5082985;28;20406;-72
2023/08/16 09:24:40;;;;;;;8.63;7.93;;;22.80;99.90;;;;;;5069712;28;20476;-72
2023/08/16 09:27:07;;;;;;;8.65;7.95;;;22.80;99.90;;;;;;5081124;28;20439;-72
2023/08/16 09:29:39;;;;;;;8.95;8.25;;;22.90;99.90;;;;;;5071433;28;20422;-72
2023/08/16 09:32:06;;;;;;;9.32;8.45;;;22.90;99.90;;;;;;5067055;28;20427;-70
2023/08/16 09:34:33;;;;;;;10.90;10.00;;;23.00;99.90;;;;;;5078405;28;20411;-70
2023/08/16 09:37:02;;;;;;;13.10;12.00;;;23.00;99.90;;;;;;5081003;28;20410;-71
2023/08/16 09:39:29;;;;;;;13.30;12.20;;;23.00;99.90;;;;;;5075097;28;20671;-72
2023/08/16 09:41:57;;;;;;;11.77;10.70;;;23.00;99.90;;;;;;5080390;28;20414;-71
2023/08/16 09:44:28;;;;;;;13.10;11.80;;;23.00;99.90;;;;;;5068947;28;20841;-71
2023/08/16 09:46:57;;;;;;;11.63;10.63;;;23.10;99.90;;;;;;5067009;28;20447;-72
2023/08/16 09:49:25;;;;;;;11.15;10.15;;;23.20;99.90;;;;;;5069490;28;21035;-71
2023/08/16 09:51:52;;;;;;;11.00;10.10;;;23.20;99.90;;;;;;5083454;28;20423;-73
2023/08/16 09:54:18;;;;;;;9.85;9.05;;;23.40;99.90;;;;;;5078136;28;20423;-72
2023/08/16 09:56:47;;;;;;;11.32;10.32;;;23.40;99.90;;;;;;5069216;28;20412;-71
2023/08/16 09:59:14;;;;;;;10.70;9.80;;;23.60;99.90;;;;;;5079162;28;20524;-72
2023/08/16 10:01:41;;;;;;;10.48;9.57;;;23.70;99.90;;;;;;5073710;28;20429;-71
2023/08/16 10:04:10;;;;;;;11.00;9.83;;;23.80;99.90;;;;;;5069012;28;20404;-72
2023/08/16 10:06:37;;;;;;;10.82;9.82;;;23.90;99.90;;;;;;5077869;28;20513;-72
2023/08/16 10:09:07;;;;;;;8.80;8.10;;;24.20;99.10;;;;;;5074665;28;20481;-71
2023/08/16 10:11:34;;;;;;;8.00;7.30;;;24.60;98.00;;;;;;5075444;28;20420;-72
2023/08/16 10:14:02;;;;;;;7.90;7.15;;;25.00;97.70;;;;;;5078547;28;20432;-71
2023/08/16 10:16:32;;;;;;;6.97;6.28;;;25.50;96.40;;;;;;5073233;28;21070;-71
2023/08/16 10:19:01;;;;;;;7.10;6.50;;;26.10;93.80;;;;;;5076546;28;20873;-71
2023/08/16 10:21:34;;;;;;;6.65;6.05;;;26.50;92.10;;;;;;5079394;28;20443;-72
2023/08/16 10:24:02;;;;;;;5.47;5.03;;;26.70;89.70;;;;;;5078885;28;20418;-71
2023/08/16 10:26:33;;;;;;;5.20;4.80;;;26.80;88.90;;;;;;5074812;28;20911;-72
2023/08/16 10:29:09;;;;;;;4.63;4.22;;;26.80;86.80;;;;;;5090927;28;20410;-72
2023/08/16 10:31:40;;;;;;;4.50;4.20;;;26.80;85.10;;;;;;5070773;28;20422;-71
2023/08/16 10:34:10;;;;;;;4.75;4.35;;;26.70;87.10;;;;;;5065634;28;20426;-71
2023/08/16 10:36:39;;;;;;;4.70;4.30;;;26.70;88.80;;;;;;5084051;28;20751;-71
2023/08/16 10:39:07;;;;;;;4.90;4.50;;;26.80;89.30;;;;;;5085367;28;20416;-72
2023/08/16 10:41:41;;;;;;;5.07;4.57;;;26.90;84.90;;;;;;5083675;28;20680;-71
2023/08/16 10:44:08;;;;;;;4.60;4.20;;;26.90;84.80;;;;;;5076191;28;20462;-71
2023/08/16 10:46:36;;;;;;;4.63;4.22;;;26.80;84.70;;;;;;5081677;28;20431;-70
2023/08/16 10:49:05;;;;;;;4.50;4.10;;;26.80;85.10;;;;;;5078793;28;20427;-71
2023/08/16 10:51:44;;;;;;;4.90;4.50;;;26.70;84.60;;;;;;5072751;28;20790;-71
2023/08/16 10:54:11;;;;;;;5.90;5.40;;;26.80;84.30;;;;;;5072347;28;20427;-70
2023/08/16 10:56:44;;;;;;;6.90;6.30;;;26.90;87.90;;;;;;5072887;28;20412;-72
2023/08/16 10:59:11;;;;;;;7.72;6.35;;;27.10;86.80;;;;;;5072418;28;20433;-72
2023/08/16 11:01:45;;;;;;;7.85;7.25;;;27.40;85.30;;;;;;5076198;28;20412;-72
2023/08/16 11:04:12;;;;;;;6.25;5.65;;;27.40;81.90;;;;;;5083508;28;20425;-70
2023/08/16 11:06:40;;;;;;;7.90;7.20;;;27.30;84.60;;;;;;5070211;28;20438;-71
2023/08/16 11:09:09;;;;;;;8.10;7.50;;;27.30;84.80;;;;;;5078067;28;20415;-71
2023/08/16 11:11:36;;;;;;;8.02;7.32;;;27.50;84.80;;;;;;5080512;28;20424;-70
2023/08/16 11:14:03;;;;;;;8.80;8.10;;;27.60;84.60;;;;;;5078042;28;20416;-71
2023/08/16 11:16:30;;;;;;;10.38;9.52;;;27.60;84.40;;;;;;5080641;28;20410;-70
2023/08/16 11:19:04;;;;;;;10.73;9.82;;;27.40;84.20;;;;;;5070640;28;20436;-71
2023/08/16 11:21:32;;;;;;;10.55;9.65;;;27.10;85.10;;;;;;5079728;28;20496;-70
2023/08/16 11:24:02;;;;;;;10.75;9.88;;;26.90;86.20;;;;;;5086327;28;20406;-72
2023/08/16 11:26:38;;;;;;;10.63;9.73;;;26.80;86.70;;;;;;5079824;28;20434;-71
2023/08/16 11:29:06;;;;;;;10.60;9.70;;;26.70;86.50;;;;;;5077375;28;20406;-71
2023/08/16 11:31:34;;;;;;;9.95;9.15;;;26.50;87.00;;;;;;5084027;28;20465;-70
2023/08/16 11:34:01;;;;;;;10.07;9.38;;;26.50;87.90;;;;;;5068317;28;20461;-70
2023/08/16 11:36:28;;;;;;;10.90;10.00;;;26.50;88.10;;;;;;5073644;28;20412;-70
2023/08/16 11:38:54;;;;;;;9.90;8.90;;;26.70;87.10;;;;;;5083549;28;20428;-70
2023/08/16 11:41:21;;;;;;;10.20;9.40;;;27.10;86.60;;;;;;5070302;28;20411;-71
2023/08/16 11:43:58;;;;;;;9.50;8.60;;;27.30;84.10;;;;;;5082503;28;20416;-71
2023/08/16 11:46:24;;;;;;;9.75;8.95;;;27.50;83.40;;;;;;5070524;28;20733;-70
2023/08/16 11:48:51;;;;;;;9.82;8.93;;;27.50;82.80;;;;;;5073105;28;20433;-72
2023/08/16 11:51:18;;;;;;;8.82;8.20;;;27.30;83.20;;;;;;5076599;28;20434;-71
2023/08/16 11:53:45;;;;;;;9.50;8.70;;;27.20;84.20;;;;;;5089932;28;20415;-70
2023/08/16 11:56:12;;;;;;;10.05;9.15;;;27.00;84.60;;;;;;5077610;28;20411;-72
2023/08/16 11:58:44;;;;;;;10.90;10.00;;;26.90;85.00;;;;;;5070683;28;20408;-69
2023/08/16 12:01:14;;;;;;;10.43;9.63;;;27.00;85.80;;;;;;5070039;28;20820;-71
2023/08/16 12:03:41;;;;;;;10.20;9.40;;;27.10;84.20;;;;;;5071253;28;20463;-70
2023/08/16 12:06:09;;;;;;;9.10;8.30;;;27.30;83.90;;;;;;5076189;28;20919;-70
2023/08/16 12:08:36;;;;;;;11.10;10.20;;;27.30;83.20;;;;;;5073616;28;20913;-72
2023/08/16 12:11:04;;;;;;;8.30;7.70;;;27.30;82.40;;;;;;5082102;28;20418;-70
2023/08/16 12:13:34;;;;;;;9.40;8.55;;;27.40;84.30;;;;;;5080041;28;20443;-70
2023/08/16 12:16:01;;;;;;;12.02;11.13;;;27.40;83.50;;;;;;5088171;28;20431;-72
2023/08/16 12:18:29;;;;;;;10.13;9.27;;;27.40;81.50;;;;;;5083471;28;20438;-72
2023/08/16 12:20:56;;;;;;;11.20;10.20;;;27.50;82.90;;;;;;5093151;28;20793;-73
2023/08/16 12:23:23;;;;;;;11.90;11.00;;;27.40;82.00;;;;;;5101334;28;20434;-72
2023/08/16 12:25:50;;;;;;;10.55;9.65;;;27.50;81.80;;;;;;5090816;28;20415;-72
2023/08/16 12:28:17;;;;;;;11.00;10.10;;;27.50;82.20;;;;;;5101837;28;20500;-71
2023/08/16 12:30:43;;;;;;;9.70;8.90;;;27.60;81.40;;;;;;5084483;28;20434;-71
2023/08/16 12:33:12;;;;;;;9.60;8.90;;;27.70;82.10;;;;;;5080139;28;20443;-72
2023/08/16 12:35:40;;;;;;;9.30;8.60;;;28.00;79.60;;;;;;5072960;28;20422;-71